Wednesday, August 15, 2018, 4:43 AM EDT
Back to Local

KMPV, Knapp State Airport

Location: Barre, VT, United States Lat: 44.2
Local Time: 4:43 AM EDT ( 8:43 GMT) Lon: -72.567
Time Zone: US/Eastern Elev: 1164 ft

Show me the last for .
Show Decoded

2018-08-15 04:24 METAR KMPV 150824Z AUTO 00000KT 1/4SM FG VV003 17/17 A2986 RMK AO2 T01720172 $ =
2018-08-15 04:07 METAR KMPV 150807Z AUTO 00000KT 1/4SM FG VV001 17/17 A2987 RMK AO2 T01720172 $ =
2018-08-15 04:00 METAR KMPV 150800Z AUTO 33003KT 1SM BR VV001 17/17 A2986 RMK AO2 T01670167 $ =
2018-08-15 03:58 METAR KMPV 150758Z AUTO 00000KT 1 1/2SM BR BKN001 17/17 A2986 RMK AO2 T01670167
                 $ =
2018-08-15 03:51 METAR KMPV 150751Z AUTO 00000KT 9SM BKN001 16/16 A2986 RMK AO2 SLP107 T01610161
                 $ =
2018-08-15 03:21 METAR KMPV 150721Z AUTO 00000KT 7SM SCT001 17/17 A2987 RMK AO2 T01720172 $ =
2018-08-15 03:14 METAR KMPV 150714Z AUTO 00000KT 2 1/2SM BR BKN001 17/17 A2987 RMK AO2 T01670167
                 $ =
2018-08-15 03:12 METAR KMPV 150712Z AUTO 00000KT 1 1/4SM BR BKN001 17/17 A2987 RMK AO2 T01720172
                 $ =
2018-08-15 02:51 METAR KMPV 150651Z AUTO 00000KT 1/4SM FG VV001 18/18 A2987 RMK AO2 SLP108
                 T01830183 $ =
2018-08-15 02:45 METAR KMPV 150645Z AUTO 00000KT 3/4SM BR VV001 18/18 A2987 RMK AO2 =
2018-08-15 02:43 METAR KMPV 150643Z AUTO 24003KT 1 1/4SM BR SCT002 18/18 A2987 RMK AO2 T01780178
                 =
2018-08-15 01:51 METAR KMPV 150551Z AUTO 00000KT 8SM FEW001 18/18 A2988 RMK AO2 SLP113 T01830183
                 10222 20183 50000 =
2018-08-15 01:47 METAR KMPV 150547Z AUTO 00000KT 8SM FEW001 19/19 A2988 RMK AO2 =
2018-08-15 00:51 METAR KMPV 150451Z AUTO 00000KT 10SM CLR 19/19 A2989 RMK AO2 SLP114 T01940194
                 402780189 =
2018-08-14 23:51 METAR KMPV 150351Z AUTO 00000KT 10SM FEW120 20/19 A2988 RMK AO2 SLP114 T02000194
                 =
2018-08-14 22:51 METAR KMPV 150251Z AUTO 18004KT 10SM CLR 19/19 A2988 RMK AO2 SLP114 T01940194
                 50004 =
2018-08-14 21:51 METAR KMPV 150151Z AUTO 00000KT 10SM CLR 21/20 A2989 RMK AO2 LTG DSNT W SLP117
                 T02110200 =
2018-08-14 20:51 METAR KMPV 150051Z AUTO 00000KT 10SM CLR 22/20 A2989 RMK AO2 SLP117 T02170200 =
2018-08-14 19:51 METAR KMPV 142351Z AUTO 19004KT 10SM CLR 22/20 A2987 RMK AO2 SLP109 T02220200
                 10278 20222 55002 =
2018-08-14 18:51 METAR KMPV 142251Z AUTO 18004KT 10SM CLR 25/20 A2985 RMK AO2 SLP104 T02500200 =
2018-08-14 17:51 METAR KMPV 142151Z AUTO 17008KT 10SM CLR 25/19 A2987 RMK AO2 SLP110 T02500194 =
2018-08-14 16:51 METAR KMPV 142051Z AUTO 19008KT 10SM CLR 25/19 A2988 RMK AO2 SLP111 T02500194
                 56012 =
2018-08-14 15:51 METAR KMPV 141951Z AUTO 19009KT 10SM SCT041 BKN048 27/19 A2988 RMK AO2 SLP113
                 T02670189 =
2018-08-14 14:51 METAR KMPV 141851Z AUTO 19011KT 10SM CLR 27/18 A2989 RMK AO2 SLP116 T02670178 =
2018-08-14 13:51 METAR KMPV 141751Z AUTO 17009KT 10SM CLR 27/19 A2991 RMK AO2 SLP123 60000
                 T02670189 10267 20200 58015 =
2018-08-14 12:51 METAR KMPV 141651Z AUTO 17011G16KT 10SM CLR 26/20 A2993 RMK AO2 SLP129 T02560200
                 =
2018-08-14 11:51 METAR KMPV 141551Z AUTO 18013G17KT 10SM FEW015 BKN040 24/21 A2995 RMK AO2 SLP137
                 T02390206 =
2018-08-14 11:44 METAR KMPV 141544Z AUTO 18010KT 10SM FEW015 SCT022 BKN040 24/21 A2995 RMK AO2
                 T02390206 =
2018-08-14 10:51 METAR KMPV 141451Z AUTO 16005KT 10SM BKN015 OVC020 22/21 A2996 RMK AO2 RAE00
                 SLP139 P0000 60000 T02220211 58003 =
2018-08-14 10:28 METAR KMPV 141428Z AUTO 16006KT 10SM OVC015 22/21 A2997 RMK AO2 RAE00 P0000
                 T02170211 =
2018-08-14 09:51 METAR KMPV 141351Z AUTO 15005KT 10SM -RA OVC011 21/21 A2997 RMK AO2 RAB24 CIG
                 006V013 SLP143 P0000 T02110206 =
2018-08-14 09:02 METAR KMPV 141302Z AUTO 00000KT 10SM SCT005 OVC014 21/21 A2997 RMK AO2 T02060206
                 =
2018-08-14 08:51 METAR KMPV 141251Z AUTO 05003KT 10SM FEW004 OVC015 21/21 A2997 RMK AO2 SLP143
                 T02060206 =
2018-08-14 08:47 METAR KMPV 141247Z AUTO 00000KT 10SM FEW004 OVC013 21/21 A2997 RMK AO2 =
2018-08-14 08:27 METAR KMPV 141227Z AUTO 00000KT 10SM SCT005 OVC015 20/20 A2997 RMK AO2 T02000200
                 =
2018-08-14 07:51 METAR KMPV 141151Z AUTO 00000KT 10SM SCT010 BKN016 OVC023 20/20 A2997 RMK AO2
                 SLP143 60018 70019 T02000200 10200 20189 55000 =
2018-08-14 07:47 METAR KMPV 141147Z AUTO 00000KT 10SM SCT010 BKN017 OVC023 20/20 A2997 RMK AO2 =
2018-08-14 07:19 METAR KMPV 141119Z AUTO 00000KT 10SM SCT003 OVC010 19/19 A2997 RMK AO2 CIG
                 008V014 T01940194 =
2018-08-14 06:51 METAR KMPV 141051Z AUTO 00000KT 10SM BKN002 OVC013 19/19 A2997 RMK AO2 SLP143
                 T01940194 =
2018-08-14 05:51 METAR KMPV 140951Z AUTO 00000KT 10SM OVC003 19/19 A2996 RMK AO2 RAE28 SLP142
                 P0004 T01940194 =
2018-08-14 05:34 METAR KMPV 140934Z AUTO 00000KT 10SM BKN003 OVC017 19/19 A2996 RMK AO2 RAE28
                 P0004 T01940194 =
2018-08-14 04:51 METAR KMPV 140851Z AUTO 00000KT 6SM RA BR OVC002 19/19 A2997 RMK AO2 RAE25B45
                 SLP144 P0003 60014 T01940194 58010 =

Support USWX by starting your Amazon purchase here.